Time;durP1;ratioP1;P1;durP2;ratioP2;P2;SDS_P1;SDS_P2;PMS_P1;PMS_P2;Temp;Humidity;BMP_temperature;BMP_pressure;BME280_temperature;BME280_humidity;BME280_pressure;Samples;Min_cycle;Max_cycle;Signal;HPM_P1;HPM_P2
2022/04/12 00:00:00;;;;;;;5.93;2.15;;;-0.30;99.90;;;-2.04;93.43;101577.66;4965329;28;20414;-77
2022/04/12 00:02:28;;;;;;;11.85;2.58;;;-0.30;99.90;;;-2.03;93.96;101574.22;4965688;28;20912;-76
2022/04/12 00:04:55;;;;;;;9.38;2.67;;;-0.30;99.90;;;-2.02;94.31;101575.97;4964495;28;20481;-75
2022/04/12 00:07:21;;;;;;;8.02;2.63;;;-0.30;99.90;;;-2.08;94.76;101579.28;4984417;28;20038;-76
2022/04/12 00:09:47;;;;;;;6.85;2.45;;;-0.30;99.90;;;-2.08;94.88;101579.28;4965058;28;20026;-77
2022/04/12 00:12:15;;;;;;;10.02;2.92;;;-0.30;99.90;;;-2.04;95.59;101578.53;4963389;28;20434;-76
2022/04/12 00:14:43;;;;;;;8.90;3.20;;;-0.20;99.90;;;-1.95;95.59;101575.25;4982509;28;20053;-76
2022/04/12 00:19:53;;;;;;;11.80;2.40;;;-0.20;99.90;;;-1.94;95.34;101575.28;4968587;28;20037;-76
2022/04/12 00:22:19;;;;;;;7.07;3.05;;;-0.20;99.90;;;-1.99;94.55;101576.03;4965951;28;20106;-76
2022/04/12 00:24:46;;;;;;;8.63;3.10;;;-0.30;99.90;;;-2.13;94.30;101573.19;4963191;28;20018;-77
2022/04/12 00:27:12;;;;;;;12.63;3.40;;;-0.30;99.90;;;-2.21;94.72;101574.75;4963155;28;20038;-76
2022/04/12 00:29:37;;;;;;;6.05;3.20;;;-0.30;99.90;;;-2.14;95.73;101564.59;4958440;28;20039;-77
2022/04/12 00:32:04;;;;;;;11.93;3.20;;;-0.30;99.90;;;-2.06;96.41;101568.16;4966560;28;20440;-76
2022/04/12 00:34:30;;;;;;;11.25;3.50;;;-0.30;99.90;;;-1.98;96.92;101565.72;4963293;28;20035;-76
2022/04/12 00:36:56;;;;;;;9.18;3.38;;;-0.20;99.90;;;-1.97;97.22;101559.72;4958737;28;20162;-77
2022/04/12 00:39:22;;;;;;;4.40;2.85;;;-0.20;99.90;;;-1.93;97.34;101558.94;4957416;28;20028;-76
2022/04/12 00:41:48;;;;;;;6.82;3.35;;;-0.20;99.90;;;-1.87;96.57;101558.19;4964993;28;20444;-77
2022/04/12 00:44:14;;;;;;;15.18;3.97;;;-0.20;99.90;;;-1.86;96.68;101558.22;4962698;28;20050;-76
2022/04/12 00:46:40;;;;;;;7.93;3.55;;;-0.10;99.90;;;-1.81;96.96;101553.13;4975631;28;20080;-77
2022/04/12 00:49:06;;;;;;;11.23;3.03;;;-0.10;99.90;;;-1.77;97.07;101552.34;4981400;28;20042;-76
2022/04/12 00:51:32;;;;;;;10.38;3.22;;;1.00;99.90;;;-1.74;97.17;101560.13;4965940;28;20031;-76
2022/04/12 00:53:58;;;;;;;11.73;3.38;;;0.00;99.90;;;-1.76;97.44;101554.06;4963608;28;20038;-77
2022/04/12 00:56:25;;;;;;;11.55;3.58;;;0.00;99.90;;;-1.74;96.95;101554.97;4967419;28;20073;-77
2022/04/12 00:58:52;;;;;;;8.05;3.25;;;0.00;99.90;;;-1.67;96.99;101551.63;4963070;28;20471;-77
2022/04/12 01:01:17;;;;;;;8.93;3.35;;;0.00;99.90;;;-1.64;96.54;101556.00;4963869;28;20041;-76
2022/04/12 01:03:44;;;;;;;12.00;3.58;;;0.00;99.90;;;-1.62;96.05;101562.06;4981413;28;20045;-76
2022/04/12 01:06:13;;;;;;;5.75;3.08;;;0.00;99.90;;;-1.65;95.40;101562.84;4975778;28;20033;-76
2022/04/12 01:08:39;;;;;;;11.55;3.47;;;0.00;99.90;;;-1.69;94.44;101563.66;4964489;28;20035;-77
2022/04/12 01:11:07;;;;;;;11.75;3.70;;;-0.10;99.90;;;-1.75;93.79;101568.72;4949930;28;20025;-76
2022/04/12 01:13:35;;;;;;;12.85;3.30;;;-0.10;99.90;;;-1.87;93.67;101564.22;4965564;28;20029;-77
2022/04/12 01:16:01;;;;;;;10.25;3.60;;;-0.10;99.90;;;-1.92;94.58;101559.81;4964046;28;20038;-76
2022/04/12 01:18:27;;;;;;;8.63;3.60;;;-0.10;99.90;;;-1.90;95.46;101558.09;4963178;28;20066;-77
2022/04/12 01:20:53;;;;;;;8.57;3.60;;;-0.10;99.90;;;-1.84;96.57;101565.09;4964333;28;20033;-77
2022/04/12 01:23:51;;;;;;;10.77;3.40;;;-0.10;99.90;;;-1.80;97.09;101564.31;4962954;28;20023;-76
2022/04/12 01:26:17;;;;;;;7.65;2.97;;;0.00;99.90;;;-1.73;97.75;101579.06;4981888;28;20101;-76
2022/04/12 01:28:44;;;;;;;12.43;4.20;;;0.00;99.90;;;-1.71;97.46;101573.06;4961880;28;20034;-76
2022/04/12 01:31:11;;;;;;;9.50;3.65;;;0.00;99.90;;;-1.71;96.56;101561.88;4965383;28;20053;-77
2022/04/12 01:33:37;;;;;;;7.90;3.58;;;0.00;99.90;;;-1.74;96.21;101572.19;4960308;28;20026;-76
2022/04/12 01:36:03;;;;;;;12.65;3.47;;;-0.10;99.90;;;-1.83;95.24;101572.88;4950371;28;20177;-76
2022/04/12 01:38:29;;;;;;;11.95;3.45;;;-0.10;99.90;;;-1.93;95.68;101577.00;4955361;28;20027;-76
2022/04/12 01:40:55;;;;;;;10.30;3.47;;;-0.20;99.90;;;-2.00;95.68;101572.56;4981195;28;20128;-76
2022/04/12 01:43:21;;;;;;;6.72;3.60;;;-0.30;99.90;;;-2.03;96.28;101575.13;4964232;28;20033;-76
2022/04/12 01:45:47;;;;;;;11.73;3.70;;;-0.30;99.90;;;-2.04;97.08;101569.91;4981508;28;20065;-76
2022/04/12 01:48:13;;;;;;;10.70;3.88;;;-0.30;99.90;;;-2.03;97.14;101571.63;4949379;28;20475;-76
2022/04/12 01:50:38;;;;;;;8.60;3.80;;;-0.30;99.90;;;-2.01;97.58;101569.97;4981380;28;20053;-76
2022/04/12 01:53:05;;;;;;;8.82;3.20;;;-0.30;99.90;;;-2.06;97.70;101570.75;4960326;28;20035;-76
2022/04/12 01:55:31;;;;;;;8.98;3.58;;;-0.30;99.90;;;-2.12;97.79;101562.88;4982409;28;20037;-76
2022/04/12 01:57:57;;;;;;;8.98;3.72;;;-0.30;99.90;;;-2.13;98.17;101570.63;4954934;28;20468;-75
2022/04/12 02:00:23;;;;;;;15.05;4.43;;;-0.40;99.90;;;-2.18;97.73;101564.47;4956230;28;20034;-76
2022/04/12 02:02:48;;;;;;;13.55;4.75;;;-0.30;99.90;;;-2.17;98.46;101567.09;4952773;28;20049;-75
2022/04/12 02:05:15;;;;;;;16.48;4.70;;;-0.30;99.90;;;-2.15;98.44;101565.41;4963029;28;20127;-76
2022/04/12 02:07:44;;;;;;;10.07;4.45;;;-0.40;99.90;;;-2.10;98.21;101570.66;4960244;28;20149;-76
2022/04/12 02:10:11;;;;;;;6.25;3.20;;;-0.40;99.90;;;-2.12;97.72;101564.59;4954221;28;20056;-75
2022/04/12 02:12:37;;;;;;;8.35;3.00;;;-0.40;99.90;;;-2.22;96.54;101558.41;4960238;28;20387;-76
2022/04/12 02:15:04;;;;;;;9.63;3.10;;;-0.50;99.90;;;-2.33;95.90;101558.19;4963656;28;20039;-76
2022/04/12 02:17:30;;;;;;;10.52;3.35;;;-0.60;99.90;;;-2.44;94.33;101548.50;4964844;28;20113;-76
2022/04/12 02:19:56;;;;;;;12.93;3.83;;;-0.70;99.90;;;-2.53;93.99;101549.19;4963443;28;20093;-76
2022/04/12 02:22:23;;;;;;;12.05;3.22;;;-0.80;99.90;;;-2.60;93.29;101549.91;4960237;28;20674;-76
2022/04/12 02:24:49;;;;;;;7.97;3.60;;;-0.80;99.90;;;-2.65;93.09;101559.25;4963176;28;20611;-76
2022/04/12 02:27:15;;;;;;;10.32;3.75;;;-0.90;99.90;;;-2.68;93.04;101557.47;4950813;28;20059;-77
2022/04/12 02:29:41;;;;;;;12.98;3.70;;;-1.00;99.90;;;-2.74;93.10;101565.09;4948972;28;20060;-75
2022/04/12 02:32:07;;;;;;;10.57;4.00;;;-1.00;99.90;;;-2.78;92.72;101561.56;4964618;28;20018;-76
2022/04/12 02:34:34;;;;;;;9.30;3.85;;;-1.00;99.90;;;-2.82;93.36;101559.75;4964824;28;20502;-76
2022/04/12 02:37:00;;;;;;;14.68;3.75;;;-1.00;99.90;;;-2.81;94.71;101558.91;4962622;28;20030;-77
2022/04/12 02:39:26;;;;;;;17.02;3.70;;;-1.10;99.90;;;-2.73;95.79;101559.09;4954302;28;20088;-77
2022/04/12 02:41:52;;;;;;;8.63;3.70;;;-1.00;99.90;;;-2.69;96.81;101559.19;4974196;28;20045;-77
2022/04/12 02:44:18;;;;;;;12.10;4.03;;;-1.00;99.90;;;-2.68;96.81;101562.63;4956088;28;20034;-76
2022/04/12 02:46:44;;;;;;;16.08;4.20;;;-1.00;99.90;;;-2.66;96.38;101554.94;4977735;28;20030;-77
2022/04/12 02:49:10;;;;;;;13.52;4.68;;;-0.90;99.90;;;-2.62;97.13;101555.03;4979474;28;20027;-77
2022/04/12 02:51:36;;;;;;;11.48;4.18;;;-0.90;99.90;;;-2.58;98.12;101554.25;4962839;28;20049;-76
2022/04/12 02:54:02;;;;;;;12.10;4.13;;;-0.90;99.90;;;-2.57;99.44;101560.25;4976803;28;20844;-77
2022/04/12 02:56:28;;;;;;;14.02;3.60;;;-0.80;99.90;;;-2.53;100.00;101554.34;4961563;28;20047;-76
2022/04/12 02:58:54;;;;;;;7.78;3.58;;;-0.70;99.90;;;-2.48;100.00;101552.75;4945237;28;20614;-76
2022/04/12 03:01:20;;;;;;;12.13;4.03;;;-0.70;99.90;;;-2.39;100.00;101554.63;4946695;28;20022;-77
2022/04/12 03:03:46;;;;;;;9.25;3.95;;;-0.60;99.90;;;-2.34;100.00;101555.59;4977865;28;20023;-76
2022/04/12 03:06:12;;;;;;;12.73;3.00;;;-0.60;99.90;;;-2.37;100.00;101556.41;4980729;28;20030;-78
2022/04/12 03:08:38;;;;;;;8.00;3.75;;;-0.60;99.90;;;-2.36;100.00;101552.97;4960378;28;20070;-75
2022/04/12 03:11:04;;;;;;;10.18;3.50;;;-0.60;99.90;;;-2.36;100.00;101554.69;4981212;28;20018;-76
2022/04/12 03:13:30;;;;;;;8.93;3.83;;;-0.60;99.90;;;-2.36;100.00;101563.28;4942449;28;20487;-76
2022/04/12 03:15:56;;;;;;;10.77;3.67;;;-0.60;99.90;;;-2.36;100.00;101560.69;4964570;28;20113;-75
2022/04/12 03:18:22;;;;;;;12.52;3.92;;;-0.60;99.90;;;-2.35;100.00;101564.19;4959826;28;20045;-77
2022/04/12 03:20:51;;;;;;;8.23;3.80;;;-0.60;99.90;;;-2.37;100.00;101560.69;4977648;28;20391;-76
2022/04/12 03:23:19;;;;;;;13.40;3.58;;;-0.60;99.90;;;-2.36;100.00;101560.69;4961157;28;20510;-76
2022/04/12 03:25:45;;;;;;;10.38;3.55;;;-0.60;99.90;;;-2.35;100.00;101567.63;4962081;28;20034;-76
2022/04/12 03:28:11;;;;;;;14.73;4.10;;;-0.60;99.90;;;-2.35;100.00;101561.59;4959667;28;20654;-77
2022/04/12 03:30:37;;;;;;;12.80;4.20;;;-0.60;99.90;;;-2.34;100.00;101556.44;4978332;28;20723;-76
2022/04/12 03:33:03;;;;;;;12.45;3.67;;;-0.70;99.90;;;-2.35;100.00;101553.84;4980471;28;20162;-76
2022/04/12 03:35:29;;;;;;;8.25;3.95;;;-0.70;99.90;;;-2.40;100.00;101558.03;4976670;28;20041;-76
2022/04/12 03:38:01;;;;;;;15.15;3.88;;;-0.70;99.90;;;-2.43;100.00;101551.09;4963846;28;20161;-76
2022/04/12 03:40:31;;;;;;;13.40;3.75;;;-0.70;99.90;;;-2.47;100.00;101555.31;4963843;28;20114;-76
2022/04/12 03:43:05;;;;;;;10.23;3.40;;;-0.70;99.90;;;-2.47;100.00;101555.31;4962214;28;20030;-76
2022/04/12 03:45:33;;;;;;;8.85;3.75;;;-0.70;99.90;;;-2.52;100.00;101551.81;4962968;28;20690;-76
2022/04/12 03:48:00;;;;;;;16.73;4.20;;;-0.70;99.90;;;-2.55;100.00;101550.84;4963596;28;20052;-76
2022/04/12 03:50:27;;;;;;;14.48;4.28;;;-0.80;99.90;;;-2.57;100.00;101548.28;4961763;28;20058;-77
2022/04/12 03:52:53;;;;;;;11.50;3.65;;;-0.80;99.90;;;-2.62;100.00;101549.88;4962258;28;20027;-75
2022/04/12 03:55:30;;;;;;;10.98;4.22;;;-0.80;99.90;;;-2.57;100.00;101555.09;4954181;28;20109;-76
2022/04/12 03:58:04;;;;;;;12.73;4.30;;;-0.80;99.90;;;-2.56;100.00;101551.72;4975899;28;20041;-76
2022/04/12 04:00:32;;;;;;;11.98;3.72;;;-0.80;99.90;;;-2.58;100.00;101551.66;4961062;28;20034;-76
2022/04/12 04:02:58;;;;;;;14.43;3.83;;;-0.80;99.90;;;-2.63;100.00;101547.28;4961376;28;20164;-76
2022/04/12 04:05:25;;;;;;;12.40;4.10;;;-0.80;99.90;;;-2.58;100.00;101551.66;4963778;28;20027;-76
2022/04/12 04:07:52;;;;;;;19.17;4.13;;;-0.80;99.90;;;-2.52;100.00;101561.25;4958780;28;20050;-76
2022/04/12 04:10:18;;;;;;;12.40;3.75;;;-0.80;99.90;;;-2.48;100.00;101557.91;4961496;28;20061;-76
2022/04/12 04:12:44;;;;;;;25.70;4.10;;;-0.80;99.90;;;-2.45;100.00;101557.94;4945818;28;20046;-76
2022/04/12 04:15:14;;;;;;;13.45;3.80;;;-0.70;99.90;;;-2.41;100.00;101562.31;4963007;28;20047;-76
2022/04/12 04:17:45;;;;;;;14.10;4.15;;;-0.70;99.90;;;-2.39;100.00;101557.22;4983257;28;20030;-76
2022/04/12 04:20:15;;;;;;;12.13;4.07;;;-0.70;99.90;;;-2.36;100.00;101563.28;4964574;28;20034;-76
2022/04/12 04:22:42;;;;;;;21.88;4.35;;;-0.70;99.90;;;-2.31;100.00;101561.69;4982943;28;20034;-76
2022/04/12 04:25:12;;;;;;;14.38;3.72;;;-0.60;99.90;;;-2.28;100.00;101566.88;4982665;28;20101;-76
2022/04/12 04:27:39;;;;;;;12.05;3.60;;;-0.60;99.90;;;-2.18;100.00;101565.38;4962393;28;20089;-76
2022/04/12 04:30:08;;;;;;;12.23;3.83;;;-0.50;99.90;;;-2.11;100.00;101572.38;4961597;28;20129;-77
2022/04/12 04:32:35;;;;;;;11.73;4.05;;;-0.50;99.90;;;-2.04;100.00;101570.78;4966195;28;20029;-77
2022/04/12 04:35:03;;;;;;;11.13;3.53;;;-0.40;99.90;;;-2.02;100.00;101569.09;4953348;28;20030;-76
2022/04/12 04:37:28;;;;;;;11.38;3.60;;;-0.40;99.90;;;-1.97;100.00;101571.75;4967126;28;20208;-76
2022/04/12 04:39:54;;;;;;;8.07;3.28;;;-0.30;99.90;;;-1.98;100.00;101570.03;4967165;28;20151;-77
2022/04/12 04:42:21;;;;;;;13.10;3.67;;;-0.30;99.90;;;-1.92;100.00;101568.44;4964919;28;20040;-76
2022/04/12 04:44:50;;;;;;;15.55;4.15;;;-0.30;99.90;;;-1.81;100.00;101562.56;4964289;28;20038;-77
2022/04/12 04:47:16;;;;;;;21.60;3.92;;;-0.10;99.90;;;-1.41;100.00;101568.41;4955845;28;20186;-77
2022/04/12 04:49:42;;;;;;;14.70;4.50;;;0.20;99.90;;;-1.06;100.00;101559.50;4968229;28;20037;-76
2022/04/12 04:52:08;;;;;;;14.77;4.15;;;0.40;99.90;;;-0.74;100.00;101561.63;4966890;28;20809;-77
2022/04/12 04:54:34;;;;;;;14.52;3.85;;;0.70;99.90;;;-0.25;99.09;101563.97;4976252;28;20027;-77
2022/04/12 04:57:00;;;;;;;15.45;3.97;;;0.70;99.90;;;0.55;96.51;101565.59;4966539;28;20046;-77
2022/04/12 04:59:26;;;;;;;14.20;4.07;;;1.80;99.90;;;2.67;91.89;101579.38;4966255;28;20102;-77
2022/04/12 05:01:52;;;;;;;13.38;3.28;;;3.20;99.90;;;5.79;81.37;101566.00;4956155;28;20026;-77
2022/04/12 05:04:21;;;;;;;8.35;3.13;;;4.70;99.90;;;8.06;67.67;101563.69;4981350;28;20029;-77
2022/04/12 05:06:47;;;;;;;15.27;3.20;;;6.10;99.90;;;9.97;58.66;101571.78;4964912;28;20022;-76
2022/04/12 05:09:13;;;;;;;8.60;3.30;;;7.40;99.90;;;11.57;51.58;101574.31;4983578;28;20044;-76
2022/04/12 05:11:39;;;;;;;9.52;2.65;;;8.60;99.90;;;13.08;47.23;101585.00;4962083;28;20027;-76
2022/04/12 05:14:06;;;;;;;13.55;3.50;;;9.70;99.90;;;14.36;44.08;101610.03;4950015;28;20073;-77
2022/04/12 05:16:32;;;;;;;11.23;3.38;;;10.70;99.90;;;15.84;41.34;101625.56;4978665;28;20037;-76
2022/04/12 05:18:57;;;;;;;11.43;3.75;;;11.80;99.90;;;17.27;38.66;101650.16;4980693;28;20033;-77
2022/04/12 05:21:23;;;;;;;19.38;3.35;;;12.80;99.90;;;18.56;36.69;101673.25;4955853;28;20033;-77
2022/04/12 05:23:49;;;;;;;17.35;3.38;;;13.60;99.10;;;19.25;34.69;101701.56;4983575;28;20014;-77
2022/04/12 05:26:15;;;;;;;9.85;2.92;;;14.30;97.80;;;19.69;33.89;101707.47;4963923;28;20369;-76
2022/04/12 05:28:41;;;;;;;10.02;3.33;;;14.80;96.30;;;20.05;32.99;101725.47;4984404;28;20041;-77
2022/04/12 05:31:09;;;;;;;11.55;3.45;;;15.20;95.30;;;20.53;32.30;101740.75;4983597;28;20757;-77
2022/04/12 05:33:35;;;;;;;11.00;2.88;;;15.70;94.60;;;21.36;31.34;101755.19;4971332;28;20076;-77
2022/04/12 05:36:01;;;;;;;9.35;2.80;;;16.20;95.30;;;22.41;30.34;101774.78;4984661;28;20022;-77
2022/04/12 05:38:27;;;;;;;6.38;2.70;;;16.80;94.00;;;23.07;29.46;101797.16;4963644;28;20257;-77
2022/04/12 05:40:54;;;;;;;7.57;2.83;;;17.40;92.80;;;23.60;28.71;101804.34;4965536;28;20502;-77
2022/04/12 05:43:21;;;;;;;10.48;2.78;;;17.80;91.00;;;23.91;27.89;101804.47;4961236;28;20174;-77
2022/04/12 05:45:47;;;;;;;8.88;2.92;;;17.80;90.10;;;21.89;29.19;101804.72;4962949;28;20093;-77
2022/04/12 05:48:12;;;;;;;12.55;3.10;;;17.30;91.00;;;18.98;33.19;101784.31;4962748;28;20043;-77
2022/04/12 05:50:38;;;;;;;8.27;3.13;;;16.10;91.40;;;15.26;37.90;101770.09;4962286;28;20065;-78
2022/04/12 05:53:04;;;;;;;9.48;3.00;;;14.60;92.60;;;13.62;41.40;101758.16;4970562;28;20067;-77
2022/04/12 05:55:30;;;;;;;6.70;3.25;;;13.90;94.30;;;17.16;37.69;101767.06;4963399;28;20037;-78
2022/04/12 05:58:01;;;;;;;12.50;3.40;;;14.20;94.70;;;20.07;33.03;101800.22;4962089;28;20530;-78
2022/04/12 06:00:34;;;;;;;8.98;3.22;;;15.00;93.70;;;19.90;31.84;101811.22;4979138;28;20034;-78
2022/04/12 06:03:04;;;;;;;11.57;4.00;;;15.20;92.00;;;18.81;33.23;101808.59;4948779;28;20026;-77
2022/04/12 06:05:34;;;;;;;12.80;4.15;;;14.80;91.70;;;16.16;35.32;101810.63;4953186;28;20214;-78
2022/04/12 06:08:02;;;;;;;8.18;3.78;;;14.10;92.90;;;13.77;39.60;101811.38;4943640;28;20544;-78
2022/04/12 06:10:30;;;;;;;14.75;4.05;;;13.10;93.90;;;12.41;42.66;101806.13;4972041;28;20022;-78
2022/04/12 06:12:56;;;;;;;12.80;4.05;;;12.40;95.20;;;11.72;44.32;101805.91;4963040;28;20052;-77
2022/04/12 06:15:22;;;;;;;13.85;4.22;;;11.70;97.20;;;11.11;46.54;101805.31;4965683;28;20046;-78
2022/04/12 06:17:48;;;;;;;11.75;4.30;;;11.20;98.30;;;10.62;48.10;101808.50;4962441;28;20022;-77
2022/04/12 06:20:17;;;;;;;14.70;3.95;;;10.60;98.70;;;10.05;49.59;101803.97;4980660;28;20088;-77
2022/04/12 06:22:43;;;;;;;15.60;3.63;;;10.40;99.90;;;10.07;51.16;101807.44;4958400;28;20034;-77
2022/04/12 06:25:11;;;;;;;15.45;5.03;;;10.50;99.90;;;11.58;48.59;101805.53;4963687;28;20026;-78
2022/04/12 06:27:46;;;;;;;10.68;4.53;;;10.70;99.90;;;11.69;48.15;101814.81;4962132;28;20578;-77
2022/04/12 06:30:16;;;;;;;12.27;4.28;;;10.80;99.90;;;11.60;48.86;101823.03;4964104;28;20375;-78
2022/04/12 06:32:44;;;;;;;16.00;4.15;;;10.70;99.90;;;11.83;47.59;101818.75;4962371;28;20036;-77
2022/04/12 06:35:12;;;;;;;13.48;4.15;;;10.90;99.90;;;10.90;49.33;101817.38;4963759;28;20027;-78
2022/04/12 06:37:41;;;;;;;14.07;4.72;;;10.70;99.90;;;10.01;51.75;101818.13;4978532;28;20057;-77
2022/04/12 06:40:10;;;;;;;28.55;7.20;;;10.40;99.90;;;10.62;52.30;101823.47;4955788;28;20034;-77
2022/04/12 06:42:37;;;;;;;19.42;5.10;;;10.70;99.90;;;11.88;50.13;101835.34;4961603;28;20053;-78
2022/04/12 06:45:05;;;;;;;18.98;5.95;;;11.10;99.90;;;12.55;47.85;101828.53;4955043;28;20404;-79
2022/04/12 06:47:34;;;;;;;20.70;5.97;;;11.40;99.90;;;12.62;48.22;101828.25;4949761;28;20037;-77
2022/04/12 06:50:01;;;;;;;20.27;6.45;;;11.70;99.90;;;13.99;46.59;101836.00;4948951;28;20023;-77
2022/04/12 06:52:26;;;;;;;22.80;7.18;;;12.50;99.90;;;16.39;42.97;101840.41;4955139;28;21046;-79
2022/04/12 06:54:52;;;;;;;24.02;8.82;;;13.40;99.80;;;16.98;40.63;101854.13;4972612;28;20125;-80
2022/04/12 06:57:19;;;;;;;30.75;9.45;;;14.50;99.30;;;18.61;38.66;101853.34;4964089;28;20118;-78
2022/04/12 06:59:45;;;;;;;30.70;10.18;;;15.60;97.50;;;19.19;37.05;101862.16;4946709;28;20455;-78
2022/04/12 07:02:11;;;;;;;39.75;11.73;;;16.50;94.40;;;18.51;36.41;101870.91;4955549;28;20437;-81
2022/04/12 07:04:37;;;;;;;33.30;10.00;;;17.00;94.00;;;19.57;35.62;101876.66;4973659;28;20088;-80
2022/04/12 07:07:03;;;;;;;33.97;11.18;;;17.40;93.30;;;19.03;35.90;101872.13;4949522;28;20257;-79
2022/04/12 07:09:30;;;;;;;29.30;12.32;;;17.30;92.60;;;18.81;36.97;101876.16;4935668;28;20046;-78
2022/04/12 07:11:59;;;;;;;35.00;10.40;;;17.70;92.30;;;18.92;35.94;101891.50;4938586;28;20030;-78
2022/04/12 07:14:29;;;;;;;30.55;11.25;;;17.80;91.50;;;18.55;36.62;101888.44;4947040;28;20053;-78
2022/04/12 07:16:56;;;;;;;29.92;10.55;;;17.80;92.00;;;19.02;36.34;101897.09;4924017;28;20114;-79
2022/04/12 07:19:22;;;;;;;40.78;15.60;;;18.20;91.40;;;19.53;35.55;101899.16;4954576;28;20102;-78
2022/04/12 07:21:48;;;;;;;37.80;13.90;;;18.60;91.00;;;18.47;35.96;101900.53;4970724;28;20152;-77
2022/04/12 07:24:15;;;;;;;43.03;15.18;;;18.20;91.30;;;18.38;37.15;101891.25;4971294;28;20133;-78
2022/04/12 07:26:41;;;;;;;33.97;14.90;;;18.50;91.80;;;19.86;35.56;101906.78;4930252;28;20022;-77
2022/04/12 07:29:07;;;;;;;39.13;14.75;;;18.60;90.60;;;19.05;35.95;101911.13;4943150;28;20038;-79
2022/04/12 07:31:33;;;;;;;35.20;14.63;;;18.70;89.70;;;18.95;36.05;101912.66;4966480;28;20025;-79
2022/04/12 07:34:00;;;;;;;32.80;13.88;;;19.20;90.30;;;20.01;35.28;101924.44;4969878;28;20037;-79
2022/04/12 07:36:27;;;;;;;36.72;14.10;;;19.40;89.10;;;19.56;35.09;101929.19;4938135;28;20045;-79
2022/04/12 07:38:52;;;;;;;29.92;13.35;;;19.30;89.30;;;19.37;36.01;101934.03;4932852;28;20109;-78
2022/04/12 07:41:20;;;;;;;29.60;11.60;;;19.50;87.70;;;18.74;35.25;101936.16;4941645;28;20031;-80
2022/04/12 07:43:49;;;;;;;48.47;20.15;;;19.60;86.80;;;19.80;34.54;101941.94;4956311;28;20448;-80
2022/04/12 07:46:15;;;;;;;57.47;21.50;;;19.30;82.90;;;17.93;35.08;101941.91;4947530;28;20023;-80
2022/04/12 07:48:43;;;;;;;73.45;37.47;;;18.90;83.10;;;17.76;35.80;101937.53;4935198;28;20038;-79
2022/04/12 07:51:10;;;;;;;57.85;26.33;;;18.90;84.90;;;17.54;35.64;101951.22;4950312;28;20031;-78
2022/04/12 07:53:37;;;;;;;48.30;20.55;;;;;;;18.33;35.02;101944.00;4930877;28;20053;-81
2022/04/12 07:56:04;;;;;;;40.90;17.13;;;18.80;82.90;;;17.51;35.28;101945.19;4964494;28;20455;-80
2022/04/12 07:58:30;;;;;;;42.40;17.48;;;18.80;83.90;;;18.26;35.43;101951.53;4961511;28;20038;-79
2022/04/12 08:00:56;;;;;;;31.55;14.32;;;19.20;85.60;;;18.81;35.11;101958.00;4994975;28;20034;-80
2022/04/12 08:03:22;;;;;;;33.50;13.10;;;19.60;83.30;;;19.24;34.70;101955.31;4970564;28;20107;-79
2022/04/12 08:05:52;;;;;;;21.00;9.55;;;19.80;83.00;;;18.71;34.53;101951.50;4871372;28;20038;-80
2022/04/12 08:08:18;;;;;;;24.63;8.40;;;20.00;82.20;;;19.41;34.16;101957.75;4930267;28;20042;-78
2022/04/12 08:10:44;;;;;;;18.35;8.27;;;20.20;79.10;;;18.45;33.61;101962.81;4913045;28;20200;-78
2022/04/12 08:13:10;;;;;;;19.70;7.88;;;19.40;80.40;;;17.88;35.70;101956.44;4935107;28;20574;-80
2022/04/12 08:15:37;;;;;;;18.20;7.65;;;18.70;82.80;;;16.98;37.57;101958.72;4930360;28;20034;-79
2022/04/12 08:18:06;;;;;;;23.05;7.65;;;18.80;84.30;;;17.90;37.04;101950.06;4947867;28;21118;-78
2022/04/12 08:20:33;;;;;;;12.02;4.78;;;18.80;82.50;;;17.10;36.48;101962.50;4970810;28;20513;-81
2022/04/12 08:23:05;;;;;;;13.60;5.43;;;;;;;15.97;38.85;101948.00;4904383;28;20139;-81
2022/04/12 08:25:31;;;;;;;12.30;4.88;;;18.20;84.80;;;17.11;37.25;101952.75;4877543;28;20030;-81
2022/04/12 08:27:57;;;;;;;6.45;3.17;;;18.30;83.10;;;16.60;36.48;101964.25;4889178;28;20102;-79
2022/04/12 08:30:24;;;;;;;9.80;3.30;;;17.40;82.80;;;15.17;38.44;101959.75;4945927;28;20105;-79
2022/04/12 08:32:52;;;;;;;16.70;5.03;;;17.20;87.30;;;16.06;39.43;101946.69;4946325;28;20037;-80
2022/04/12 08:35:19;;;;;;;11.55;4.00;;;17.50;87.80;;;17.11;37.73;101947.44;4955544;28;20029;-77
2022/04/12 08:37:45;;;;;;;11.00;3.83;;;17.50;84.70;;;16.42;37.70;101965.22;4964721;28;20129;-77
2022/04/12 08:40:13;;;;;;;11.35;3.67;;;17.50;85.00;;;16.41;38.00;101958.16;4955859;28;20038;-78
2022/04/12 08:42:41;;;;;;;10.75;3.58;;;17.70;85.00;;;16.63;37.31;101967.69;4947382;28;20081;-80
2022/04/12 08:45:08;;;;;;;11.15;3.63;;;17.30;84.00;;;16.12;38.17;101964.97;4906152;28;20034;-77
2022/04/12 08:47:37;;;;;;;11.50;3.55;;;17.30;85.00;;;16.19;37.69;101961.91;4964753;28;20093;-78
2022/04/12 08:50:06;;;;;;;9.68;3.90;;;17.20;85.50;;;16.45;38.05;101962.38;4949239;28;20026;-79
2022/04/12 08:52:35;;;;;;;11.77;3.97;;;17.00;85.80;;;15.67;38.26;101969.78;4928973;28;20522;-79
2022/04/12 08:55:05;;;;;;;11.95;4.00;;;16.80;86.30;;;15.63;38.84;101956.72;4932354;28;20031;-79
2022/04/12 08:57:31;;;;;;;12.68;4.47;;;16.30;84.30;;;14.89;39.04;101955.72;4924104;28;20088;-79
2022/04/12 08:59:58;;;;;;;9.18;3.97;;;15.90;86.90;;;14.35;40.61;101950.09;4936848;28;20130;-79
2022/04/12 09:02:24;;;;;;;12.23;4.70;;;15.50;88.20;;;13.99;40.89;101935.75;4907148;28;20052;-81
2022/04/12 09:04:50;;;;;;;10.52;3.63;;;15.00;90.20;;;13.17;42.76;101930.16;4923602;28;20532;-79
2022/04/12 09:07:27;;;;;;;7.32;3.58;;;14.70;90.50;;;12.86;43.55;101926.91;4945894;28;20030;-80
2022/04/12 09:10:06;;;;;;;10.77;4.15;;;14.40;91.30;;;13.10;43.71;101913.69;4944021;28;20946;-80
2022/04/12 09:12:36;;;;;;;15.18;4.80;;;14.30;91.60;;;12.97;44.79;101908.00;4960043;28;20042;-80
2022/04/12 09:15:10;;;;;;;8.52;4.35;;;14.10;92.80;;;13.00;45.58;101912.28;4928705;28;20499;-80
2022/04/12 09:17:39;;;;;;;18.05;4.57;;;13.90;92.70;;;12.71;45.48;101909.81;4918792;28;20114;-81
2022/04/12 09:20:12;;;;;;;12.35;4.40;;;13.90;93.50;;;12.70;45.72;101909.91;4949173;28;20038;-80
2022/04/12 09:22:38;;;;;;;12.45;4.78;;;13.90;93.30;;;12.80;46.26;101910.41;4949353;28;20071;-78
2022/04/12 09:25:09;;;;;;;17.23;4.50;;;13.60;93.20;;;12.04;46.46;101899.88;4951759;28;20042;-80
2022/04/12 09:27:37;;;;;;;14.57;5.10;;;13.50;93.10;;;12.41;46.61;101903.88;4947247;28;20018;-80
2022/04/12 09:30:09;;;;;;;12.90;4.22;;;13.50;93.50;;;12.48;46.35;101902.75;4939617;28;20030;-79
2022/04/12 09:32:42;;;;;;;10.77;4.57;;;13.60;94.20;;;12.86;47.04;101892.53;4921580;28;20033;-80
2022/04/12 09:35:09;;;;;;;15.48;5.07;;;13.80;94.30;;;13.05;46.54;101891.84;4923068;28;20082;-77
2022/04/12 09:37:39;;;;;;;14.27;5.25;;;13.90;94.00;;;13.09;46.62;101880.25;4931151;28;20555;-80
2022/04/12 09:40:08;;;;;;;12.18;4.47;;;13.90;93.40;;;12.78;46.23;101876.09;4939194;28;20034;-80
2022/04/12 09:42:53;;;;;;;12.07;4.60;;;13.90;93.90;;;12.79;46.32;101872.56;4911742;28;20036;-79
2022/04/12 09:45:22;;;;;;;11.15;4.25;;;13.90;93.10;;;12.43;46.13;101886.19;4966960;28;20050;-80
2022/04/12 09:47:52;;;;;;;12.68;4.70;;;13.80;93.70;;;12.67;46.69;101868.56;4916674;28;20059;-81
2022/04/12 09:50:27;;;;;;;13.02;5.18;;;13.70;94.10;;;12.60;46.72;101871.50;4899897;28;20031;-79
2022/04/12 09:53:05;;;;;;;15.35;5.30;;;13.60;93.40;;;12.71;46.13;101866.69;4892436;28;20081;-81
2022/04/12 09:55:49;;;;;;;14.38;4.47;;;13.40;93.40;;;12.10;47.20;101859.19;4898561;28;20026;-78
2022/04/12 09:58:22;;;;;;;15.93;3.67;;;13.50;94.50;;;12.19;47.58;101861.50;4941829;28;20043;-79
2022/04/12 10:00:48;;;;;;;14.20;4.45;;;13.50;94.70;;;12.67;48.09;101860.63;4864378;28;20571;-79
2022/04/12 10:03:20;;;;;;;12.07;4.40;;;13.50;93.50;;;12.20;46.62;101868.53;4906951;28;20031;-80
2022/04/12 10:05:47;;;;;;;12.30;4.65;;;13.70;94.20;;;12.83;46.84;101860.94;4924408;28;20029;-78
2022/04/12 10:08:28;;;;;;;7.90;3.20;;;13.90;94.30;;;12.70;46.34;101865.81;4853951;28;20062;-81
2022/04/12 10:10:54;;;;;;;19.58;4.13;;;13.70;94.50;;;12.71;47.33;101858.75;4906935;28;20023;-79